createdAt,value
2022-08-27T00:00:12.860Z,7.32
2022-08-27T00:01:13.776Z,3.00
2022-08-27T00:02:13.963Z,4.84
2022-08-27T00:03:12.842Z,3.40
2022-08-27T00:04:13.870Z,6.72
2022-08-27T00:05:13.091Z,8.28
2022-08-27T00:06:13.329Z,3.12
2022-08-27T00:07:13.513Z,2.48
2022-08-27T00:08:13.545Z,4.24
2022-08-27T00:09:13.624Z,2.48
2022-08-27T00:10:13.603Z,7.16
2022-08-27T00:11:13.636Z,3.48
2022-08-27T00:12:13.402Z,1.48
2022-08-27T00:13:13.463Z,4.04
2022-08-27T00:14:13.418Z,2.24
2022-08-27T00:15:13.311Z,3.32
2022-08-27T00:16:13.153Z,2.60
2022-08-27T00:17:13.248Z,4.12
2022-08-27T00:18:13.155Z,6.08
2022-08-27T00:19:13.154Z,4.32
2022-08-27T00:20:13.162Z,2.28
2022-08-27T00:21:13.341Z,2.60
2022-08-27T00:22:13.349Z,5.72
2022-08-27T00:23:13.127Z,11.64
2022-08-27T00:24:14.654Z,8.00
2022-08-27T00:25:13.659Z,8.20
2022-08-27T00:26:13.971Z,6.76
2022-08-27T00:27:12.984Z,9.24
2022-08-27T00:28:13.053Z,3.68
2022-08-27T00:29:13.282Z,4.88
2022-08-27T00:30:14.975Z,5.80
2022-08-27T00:31:13.606Z,4.16
2022-08-27T00:32:13.681Z,4.56
2022-08-27T00:33:14.076Z,8.00
2022-08-27T00:34:13.323Z,11.96
2022-08-27T00:35:13.214Z,16.68
2022-08-27T00:36:13.128Z,7.08
2022-08-27T00:37:13.060Z,11.56
2022-08-27T00:38:13.088Z,3.84
2022-08-27T00:39:13.006Z,9.84
2022-08-27T00:40:12.849Z,4.84
2022-08-27T00:41:13.717Z,7.48
2022-08-27T00:42:13.475Z,10.16
2022-08-27T00:43:13.510Z,2.80
2022-08-27T00:44:13.379Z,8.88
2022-08-27T00:45:13.374Z,4.00
2022-08-27T00:46:13.644Z,5.08
2022-08-27T00:47:13.760Z,8.04
2022-08-27T00:48:13.972Z,2.52
2022-08-27T00:49:12.807Z,2.36
2022-08-27T00:50:13.939Z,6.60
2022-08-27T00:51:13.638Z,3.80
2022-08-27T00:52:13.927Z,5.52
2022-08-27T00:53:12.787Z,3.24
2022-08-27T00:54:16.087Z,1.12
2022-08-27T00:55:13.119Z,1.28
2022-08-27T00:56:12.981Z,0.52
2022-08-27T00:57:12.946Z,0.88
2022-08-27T00:58:12.910Z,2.20
2022-08-27T00:59:12.816Z,1.52
2022-08-27T01:00:13.805Z,0.80
2022-08-27T01:01:13.998Z,2.68
2022-08-27T01:02:13.377Z,5.04
2022-08-27T01:03:13.309Z,9.64
2022-08-27T01:04:13.473Z,1.40
2022-08-27T01:05:13.594Z,2.64
2022-08-27T01:06:16.021Z,4.72
2022-08-27T01:07:15.151Z,5.12
2022-08-27T01:08:13.488Z,2.00
2022-08-27T01:09:13.799Z,6.28
2022-08-27T01:10:14.317Z,4.88
2022-08-27T01:11:13.308Z,8.68
2022-08-27T01:12:13.566Z,4.63
2022-08-27T01:13:13.588Z,2.48
2022-08-27T01:14:13.658Z,4.92
2022-08-27T01:15:19.381Z,7.72
2022-08-27T01:16:13.441Z,3.20
2022-08-27T01:17:13.797Z,3.20
2022-08-27T01:18:13.831Z,3.96
2022-08-27T01:19:13.776Z,3.36
2022-08-27T01:20:14.434Z,6.08
2022-08-27T01:21:13.459Z,9.04
2022-08-27T01:22:19.917Z,6.68
2022-08-27T01:23:13.125Z,9.44
2022-08-27T01:24:13.202Z,6.08
2022-08-27T01:25:13.160Z,7.40
2022-08-27T01:26:13.694Z,2.20
2022-08-27T01:27:13.968Z,5.32
2022-08-27T01:28:12.925Z,7.80
2022-08-27T01:29:12.992Z,1.92
2022-08-27T01:30:13.066Z,4.68
2022-08-27T01:31:12.957Z,8.24
2022-08-27T01:32:12.798Z,4.72
2022-08-27T01:33:14.089Z,7.76
2022-08-27T01:34:13.464Z,5.84
2022-08-27T01:35:13.290Z,2.80
2022-08-27T01:36:13.750Z,5.56
2022-08-27T01:37:13.674Z,8.68
2022-08-27T01:38:18.904Z,7.60
2022-08-27T01:39:13.643Z,5.28
2022-08-27T01:40:13.531Z,5.60
2022-08-27T01:41:13.234Z,5.00
2022-08-27T01:42:13.192Z,5.64
2022-08-27T01:43:13.239Z,3.16
2022-08-27T01:44:13.174Z,3.52
2022-08-27T01:45:12.919Z,6.36
2022-08-27T01:46:15.224Z,1.56
2022-08-27T01:47:13.433Z,3.92
2022-08-27T01:48:13.499Z,4.64
2022-08-27T01:49:13.875Z,1.28
2022-08-27T01:50:12.749Z,2.48
2022-08-27T01:51:13.634Z,2.64
2022-08-27T01:52:13.491Z,1.60
2022-08-27T01:53:13.529Z,5.08
2022-08-27T01:54:13.442Z,3.68
2022-08-27T01:55:13.443Z,8.92
2022-08-27T01:56:13.431Z,5.16
2022-08-27T01:57:13.367Z,4.72
2022-08-27T01:58:13.392Z,4.20
2022-08-27T01:59:13.243Z,2.48
2022-08-27T02:00:13.151Z,2.24
2022-08-27T02:01:13.414Z,3.00
2022-08-27T02:02:13.440Z,4.16
2022-08-27T02:03:13.515Z,0.92
2022-08-27T02:04:14.024Z,2.36
2022-08-27T02:05:13.092Z,5.52
2022-08-27T02:06:12.906Z,3.96
2022-08-27T02:07:12.820Z,4.88
2022-08-27T02:08:13.865Z,3.28
2022-08-27T02:09:13.853Z,2.16
2022-08-27T02:10:13.001Z,2.48
2022-08-27T02:11:13.319Z,2.96
2022-08-27T02:12:13.467Z,0.68
2022-08-27T02:13:13.458Z,0.72
2022-08-27T02:14:13.630Z,1.80
2022-08-27T02:15:13.528Z,1.60
2022-08-27T02:16:13.770Z,3.44
2022-08-27T02:17:13.824Z,2.64
2022-08-27T02:18:13.776Z,0.56
2022-08-27T02:19:13.647Z,1.72
2022-08-27T02:20:13.509Z,2.40
2022-08-27T02:21:13.373Z,1.36
2022-08-27T02:22:13.455Z,3.96
2022-08-27T02:23:13.392Z,2.80
2022-08-27T02:24:13.402Z,1.68
2022-08-27T02:25:13.221Z,2.48
2022-08-27T02:26:13.252Z,1.84
2022-08-27T02:27:13.500Z,3.40
2022-08-27T02:28:13.508Z,3.76
2022-08-27T02:29:13.474Z,0.64
2022-08-27T02:30:13.466Z,2.04
2022-08-27T02:31:13.590Z,1.12
2022-08-27T02:32:17.702Z,3.52
2022-08-27T02:33:13.324Z,1.64
2022-08-27T02:34:13.552Z,2.32
2022-08-27T02:35:13.581Z,1.92
2022-08-27T02:36:14.976Z,0.40
2022-08-27T02:37:13.284Z,1.16
2022-08-27T02:38:13.444Z,3.08
2022-08-27T02:39:13.407Z,5.80
2022-08-27T02:40:13.228Z,2.76
2022-08-27T02:41:13.527Z,1.40
2022-08-27T02:42:13.406Z,2.44
2022-08-27T02:43:15.862Z,1.96
2022-08-27T02:44:13.830Z,2.40
2022-08-27T02:45:12.866Z,2.28
2022-08-27T02:46:14.003Z,2.04
2022-08-27T02:47:12.983Z,1.44
2022-08-27T02:48:13.009Z,0.08
2022-08-27T02:49:12.900Z,2.04
2022-08-27T02:50:13.050Z,2.80
2022-08-27T02:51:12.972Z,2.20
2022-08-27T02:52:13.352Z,2.20
2022-08-27T02:53:13.431Z,2.56
2022-08-27T02:54:13.277Z,2.12
2022-08-27T02:55:13.442Z,2.44
2022-08-27T02:56:13.686Z,4.48
2022-08-27T02:57:13.331Z,3.04
2022-08-27T02:58:14.170Z,3.44
2022-08-27T02:59:12.994Z,2.56
2022-08-27T03:00:13.197Z,1.72
2022-08-27T03:01:15.658Z,1.60
2022-08-27T03:02:13.929Z,1.36
2022-08-27T03:03:12.925Z,0.72
2022-08-27T03:04:12.830Z,1.80
2022-08-27T03:05:13.774Z,2.24
2022-08-27T03:06:13.883Z,1.76
2022-08-27T03:07:18.897Z,2.48
2022-08-27T03:08:13.246Z,1.96
2022-08-27T03:09:14.739Z,3.60
2022-08-27T03:10:13.582Z,2.68
2022-08-27T03:11:13.473Z,0.32
2022-08-27T03:12:13.286Z,1.80
2022-08-27T03:13:13.215Z,2.80
2022-08-27T03:14:13.177Z,2.32
2022-08-27T03:15:13.036Z,2.00
2022-08-27T03:16:13.266Z,1.16
2022-08-27T03:17:13.270Z,1.12
2022-08-27T03:18:13.210Z,0.64
2022-08-27T03:19:13.085Z,0.92
2022-08-27T03:20:12.963Z,1.04
2022-08-27T03:21:12.822Z,1.24
2022-08-27T03:22:13.583Z,2.20
2022-08-27T03:23:18.670Z,1.28
2022-08-27T03:24:14.630Z,1.28
2022-08-27T03:25:12.942Z,2.00
2022-08-27T03:26:12.845Z,1.28
2022-08-27T03:27:13.784Z,1.64
2022-08-27T03:28:22.418Z,0.08
2022-08-27T03:29:13.937Z,0.92
2022-08-27T03:30:12.769Z,2.24
2022-08-27T03:31:13.748Z,0.00
2022-08-27T03:32:14.030Z,0.00
2022-08-27T03:33:12.924Z,1.32
2022-08-27T03:34:12.762Z,2.76
2022-08-27T03:35:13.656Z,1.00
2022-08-27T03:36:13.528Z,0.16
2022-08-27T03:37:13.580Z,0.08
2022-08-27T03:38:13.507Z,0.00
2022-08-27T03:39:13.466Z,0.00
2022-08-27T03:40:13.637Z,1.72
2022-08-27T03:41:13.572Z,2.56
2022-08-27T03:42:13.710Z,1.28
2022-08-27T03:43:13.757Z,1.24
2022-08-27T03:44:21.266Z,1.52
2022-08-27T03:45:13.097Z,0.12
2022-08-27T03:46:13.310Z,0.04
2022-08-27T03:47:13.356Z,0.12
2022-08-27T03:48:13.570Z,1.28
2022-08-27T03:49:13.475Z,1.04
2022-08-27T03:50:13.354Z,0.24
2022-08-27T03:51:13.727Z,0.56
2022-08-27T03:52:13.789Z,0.00
2022-08-27T03:53:13.972Z,1.40
2022-08-27T03:54:12.980Z,0.76
2022-08-27T03:55:12.982Z,0.00
2022-08-27T03:56:14.276Z,0.00
2022-08-27T03:57:13.050Z,0.44
2022-08-27T03:58:13.061Z,1.04
2022-08-27T03:59:12.991Z,0.00
2022-08-27T04:00:12.899Z,0.56
2022-08-27T04:01:13.070Z,0.96
2022-08-27T04:02:14.802Z,2.36
2022-08-27T04:03:13.054Z,0.52
2022-08-27T04:04:13.270Z,0.84
2022-08-27T04:05:13.137Z,0.44
2022-08-27T04:06:13.145Z,1.76
2022-08-27T04:07:13.487Z,1.64
2022-08-27T04:08:13.525Z,1.44
2022-08-27T04:09:13.371Z,1.20
2022-08-27T04:10:13.270Z,0.44
2022-08-27T04:11:13.371Z,0.72
2022-08-27T04:12:13.693Z,0.48
2022-08-27T04:13:13.551Z,1.48
2022-08-27T04:14:24.703Z,0.96
2022-08-27T04:15:13.441Z,0.64
2022-08-27T04:16:13.363Z,0.32
2022-08-27T04:17:13.584Z,1.40
2022-08-27T04:18:13.886Z,0.16
2022-08-27T04:19:14.007Z,0.00
2022-08-27T04:20:31.639Z,0.00
2022-08-27T04:21:13.327Z,1.40
2022-08-27T04:22:13.531Z,0.92
2022-08-27T04:23:13.486Z,0.84
2022-08-27T04:24:13.496Z,0.68
2022-08-27T04:25:15.062Z,0.36
2022-08-27T04:26:13.284Z,2.96
2022-08-27T04:27:13.119Z,2.12
2022-08-27T04:28:13.237Z,3.44
2022-08-27T04:29:13.538Z,1.64
2022-08-27T04:30:13.627Z,0.88
2022-08-27T04:31:16.564Z,1.96
2022-08-27T04:32:12.809Z,1.68
2022-08-27T04:33:14.049Z,2.20
2022-08-27T04:34:13.142Z,1.16
2022-08-27T04:35:14.295Z,0.92
2022-08-27T04:36:13.166Z,2.24
2022-08-27T04:37:23.408Z,0.48
2022-08-27T04:38:13.397Z,1.08
2022-08-27T04:39:13.580Z,2.44
2022-08-27T04:40:13.854Z,1.96
2022-08-27T04:41:14.098Z,0.36
2022-08-27T04:42:12.960Z,0.72
2022-08-27T04:43:13.547Z,0.68
2022-08-27T04:44:13.433Z,0.80
2022-08-27T04:45:13.500Z,0.96
2022-08-27T04:46:13.632Z,0.56
2022-08-27T04:49:12.918Z,1.15
2022-08-27T04:50:13.792Z,1.04
2022-08-27T04:51:14.842Z,2.44
2022-08-27T04:52:13.474Z,0.60
2022-08-27T04:53:13.397Z,0.00
2022-08-27T04:54:13.830Z,0.28
2022-08-27T04:55:13.749Z,0.00
2022-08-27T04:56:14.347Z,2.64
2022-08-27T04:57:13.448Z,0.76
2022-08-27T04:58:13.362Z,1.44
2022-08-27T04:59:13.199Z,0.76
2022-08-27T05:00:13.400Z,1.60
2022-08-27T05:01:13.819Z,1.92
2022-08-27T05:02:13.944Z,1.32
2022-08-27T05:03:12.852Z,0.60
2022-08-27T05:04:13.239Z,0.08
2022-08-27T05:05:15.925Z,3.56
2022-08-27T05:06:13.092Z,0.08
2022-08-27T05:07:13.182Z,0.16
2022-08-27T05:08:13.334Z,1.48
2022-08-27T05:09:13.323Z,1.08
2022-08-27T05:10:13.380Z,0.00
2022-08-27T05:11:13.667Z,2.16
2022-08-27T05:12:13.531Z,2.52
2022-08-27T05:13:13.742Z,1.04
2022-08-27T05:14:13.778Z,1.24
2022-08-27T05:15:13.758Z,0.12
2022-08-27T05:16:13.812Z,0.24
2022-08-27T05:17:13.874Z,0.56
2022-08-27T05:18:13.957Z,0.12
2022-08-27T05:19:12.968Z,0.00
2022-08-27T05:20:12.820Z,0.32
2022-08-27T05:21:13.686Z,0.00
2022-08-27T05:22:13.729Z,1.64
2022-08-27T05:23:13.951Z,2.04
2022-08-27T05:24:13.074Z,0.56
2022-08-27T05:25:13.138Z,1.12
2022-08-27T05:26:22.296Z,1.92
2022-08-27T05:27:20.959Z,0.56
2022-08-27T05:28:13.012Z,1.44
2022-08-27T05:29:13.212Z,1.84
2022-08-27T05:30:19.741Z,0.64
2022-08-27T05:31:13.895Z,1.24
2022-08-27T05:32:14.664Z,1.12
2022-08-27T05:33:13.540Z,1.16
2022-08-27T05:34:25.429Z,0.20
2022-08-27T05:35:15.689Z,1.24
2022-08-27T05:36:12.846Z,0.40
2022-08-27T05:37:14.110Z,0.80
2022-08-27T05:38:13.401Z,1.52
2022-08-27T05:39:13.292Z,2.04
2022-08-27T05:40:13.278Z,1.08
2022-08-27T05:41:13.105Z,2.60
2022-08-27T05:42:13.245Z,1.92
2022-08-27T05:43:13.179Z,0.60
2022-08-27T05:44:39.732Z,0.76
2022-08-27T05:45:27.374Z,1.44
2022-08-27T05:46:13.313Z,0.96
2022-08-27T05:47:13.451Z,1.28
2022-08-27T05:48:13.316Z,1.20
2022-08-27T05:50:13.580Z,1.96
2022-08-27T05:51:13.484Z,1.08
2022-08-27T05:52:13.394Z,0.04
2022-08-27T05:53:13.565Z,0.24
2022-08-27T05:54:13.470Z,1.28
2022-08-27T05:55:13.356Z,1.32
2022-08-27T05:56:13.371Z,0.48
2022-08-27T05:57:13.586Z,1.52
2022-08-27T05:58:13.530Z,1.88
2022-08-27T05:59:18.437Z,2.24
2022-08-27T06:00:15.578Z,2.92
2022-08-27T06:01:12.766Z,2.44
2022-08-27T06:02:13.674Z,1.76
2022-08-27T06:03:14.230Z,0.84
2022-08-27T06:04:17.967Z,1.40
2022-08-27T06:05:13.316Z,1.80
2022-08-27T06:06:13.389Z,1.88
2022-08-27T06:07:13.556Z,2.80
2022-08-27T06:08:13.434Z,1.12
2022-08-27T06:09:13.425Z,1.80
2022-08-27T06:10:13.221Z,1.72
2022-08-27T06:11:13.309Z,0.76
2022-08-27T06:12:13.378Z,0.60
2022-08-27T06:13:13.298Z,0.60
2022-08-27T06:14:13.208Z,2.68
2022-08-27T06:15:13.071Z,1.72
2022-08-27T06:16:18.655Z,1.40
2022-08-27T06:17:13.995Z,1.20
2022-08-27T06:18:13.240Z,2.60
2022-08-27T06:19:13.159Z,1.40
2022-08-27T06:20:13.042Z,1.12
2022-08-27T06:21:12.950Z,0.64
2022-08-27T06:22:13.442Z,0.80
2022-08-27T06:23:13.448Z,0.28
2022-08-27T06:24:13.721Z,1.60
2022-08-27T06:25:13.836Z,1.92
2022-08-27T06:26:13.998Z,0.88
2022-08-27T06:27:13.191Z,0.72
2022-08-27T06:28:13.075Z,1.12
2022-08-27T06:29:12.978Z,1.76
2022-08-27T06:30:17.002Z,0.44
2022-08-27T06:31:13.889Z,1.00
2022-08-27T06:32:12.843Z,1.44
2022-08-27T06:33:13.813Z,0.72
2022-08-27T06:34:14.043Z,0.36
2022-08-27T06:35:13.517Z,0.00
2022-08-27T06:36:13.373Z,0.08
2022-08-27T06:37:13.230Z,0.52
2022-08-27T06:38:13.184Z,0.04
2022-08-27T06:39:13.410Z,0.00
2022-08-27T06:40:13.476Z,0.00
2022-08-27T06:41:16.383Z,0.68
2022-08-27T06:42:13.153Z,0.84
2022-08-27T06:43:13.423Z,0.32
2022-08-27T06:44:14.642Z,0.68
2022-08-27T06:45:13.557Z,1.20
2022-08-27T06:46:13.433Z,0.04
2022-08-27T06:47:13.368Z,0.00
2022-08-27T06:48:13.654Z,0.00
2022-08-27T06:49:13.624Z,0.00
2022-08-27T06:50:16.464Z,0.00
2022-08-27T06:51:13.291Z,0.00
2022-08-27T06:52:13.178Z,0.40
2022-08-27T06:53:12.999Z,0.56
2022-08-27T06:54:12.931Z,1.04
2022-08-27T06:55:14.589Z,0.68
2022-08-27T06:56:13.535Z,1.40
2022-08-27T06:57:13.446Z,0.52
2022-08-27T06:58:13.369Z,0.00
2022-08-27T06:59:13.356Z,0.60
2022-08-27T07:00:13.248Z,1.04
2022-08-27T07:01:13.576Z,3.00
2022-08-27T07:02:13.513Z,2.72
2022-08-27T07:03:13.417Z,1.92
2022-08-27T07:04:13.309Z,1.36
2022-08-27T07:05:13.563Z,1.56
2022-08-27T07:06:13.444Z,0.16
2022-08-27T07:07:13.830Z,0.00
2022-08-27T07:08:13.846Z,0.96
2022-08-27T07:09:13.834Z,2.76
2022-08-27T07:10:13.884Z,1.61
2022-08-27T07:11:12.835Z,1.24
2022-08-27T07:12:14.085Z,0.80
2022-08-27T07:13:13.142Z,0.60
2022-08-27T07:14:13.383Z,2.12
2022-08-27T07:15:13.556Z,0.16
2022-08-27T07:16:13.264Z,1.60
2022-08-27T07:17:15.928Z,0.76
2022-08-27T07:18:13.543Z,1.24
2022-08-27T07:19:13.605Z,1.44
2022-08-27T07:20:13.450Z,0.04
2022-08-27T07:21:13.314Z,0.00
2022-08-27T07:22:13.264Z,2.16
2022-08-27T07:23:18.368Z,1.40
2022-08-27T07:24:13.251Z,2.64
2022-08-27T07:25:13.484Z,2.44
2022-08-27T07:26:13.656Z,2.04
2022-08-27T07:27:13.963Z,1.96
2022-08-27T07:28:13.078Z,1.60
2022-08-27T07:29:12.937Z,1.56
2022-08-27T07:30:12.838Z,3.48
2022-08-27T07:31:13.854Z,2.84
2022-08-27T07:32:14.139Z,2.80
2022-08-27T07:33:13.526Z,2.44
2022-08-27T07:34:13.352Z,1.48
2022-08-27T07:35:13.385Z,1.60
2022-08-27T07:36:13.397Z,1.68
2022-08-27T07:37:13.140Z,0.04
2022-08-27T07:38:13.313Z,0.48
2022-08-27T07:39:13.174Z,1.04
2022-08-27T07:40:13.141Z,0.00
2022-08-27T07:41:12.913Z,1.16
2022-08-27T07:42:12.853Z,0.88
2022-08-27T07:43:13.703Z,3.52
2022-08-27T07:44:14.102Z,1.56
2022-08-27T07:45:13.113Z,0.16
2022-08-27T07:46:13.046Z,0.72
2022-08-27T07:47:12.964Z,0.44
2022-08-27T07:48:13.527Z,1.04
2022-08-27T07:49:13.751Z,1.12
2022-08-27T07:50:13.655Z,0.48
2022-08-27T07:51:13.574Z,0.48
2022-08-27T07:52:13.497Z,1.84
2022-08-27T07:53:13.882Z,3.24
2022-08-27T07:54:13.602Z,0.08
2022-08-27T07:55:15.132Z,0.80
2022-08-27T07:56:12.899Z,1.84
2022-08-27T07:57:12.891Z,2.76
2022-08-27T07:58:16.846Z,3.76
2022-08-27T07:59:13.636Z,3.20
2022-08-27T08:00:13.570Z,2.76
2022-08-27T08:01:13.533Z,3.60
2022-08-27T08:02:26.712Z,4.08
2022-08-27T08:03:14.111Z,2.10
2022-08-27T08:04:16.933Z,1.52
2022-08-27T08:05:13.672Z,3.80
2022-08-27T08:06:19.010Z,4.12
2022-08-27T08:07:13.001Z,3.84
2022-08-27T08:08:13.106Z,3.04
2022-08-27T08:09:13.259Z,2.92
2022-08-27T08:10:13.255Z,1.28
2022-08-27T08:11:13.229Z,0.76
2022-08-27T08:12:13.284Z,3.88
2022-08-27T08:13:13.289Z,3.44
2022-08-27T08:14:26.196Z,2.16
2022-08-27T08:15:28.269Z,2.10
2022-08-27T08:17:14.333Z,0.72
2022-08-27T08:18:23.319Z,3.52
2022-08-27T08:19:13.148Z,1.24
2022-08-27T08:20:57.453Z,2.64
2022-08-27T08:21:13.205Z,1.04
2022-08-27T08:22:18.396Z,0.92
2022-08-27T08:23:13.584Z,0.36
2022-08-27T08:24:13.884Z,1.80
2022-08-27T08:25:25.459Z,5.14
2022-08-27T08:26:18.555Z,4.08
2022-08-27T08:27:47.260Z,3.12
2022-08-27T08:28:13.681Z,3.24
2022-08-27T08:29:17.895Z,2.24
2022-08-27T08:30:13.805Z,2.36
2022-08-27T08:31:13.799Z,1.76
2022-08-27T08:32:14.101Z,0.84
2022-08-27T08:33:13.443Z,1.88
2022-08-27T08:34:15.100Z,0.52
2022-08-27T08:35:13.698Z,1.00
2022-08-27T08:36:15.385Z,1.24
2022-08-27T08:37:13.344Z,0.52
2022-08-27T08:38:13.414Z,2.20
2022-08-27T08:39:13.401Z,3.20
2022-08-27T08:40:13.341Z,1.84
2022-08-27T08:41:13.542Z,0.00
2022-08-27T08:42:14.217Z,0.48
2022-08-27T08:43:13.170Z,0.00
2022-08-27T08:44:13.178Z,0.52
2022-08-27T08:45:13.328Z,0.76
2022-08-27T08:46:13.546Z,3.40
2022-08-27T08:47:14.016Z,4.20
2022-08-27T08:48:12.994Z,3.60
2022-08-27T08:49:13.137Z,3.04
2022-08-27T08:50:17.913Z,5.20
2022-08-27T08:51:13.838Z,3.40
2022-08-27T08:52:30.495Z,3.48
2022-08-27T08:54:18.439Z,4.08
2022-08-27T08:55:14.957Z,4.18
2022-08-27T08:56:12.871Z,4.44
2022-08-27T08:57:13.731Z,3.12
2022-08-27T08:58:13.882Z,3.52
2022-08-27T08:59:14.009Z,3.44
2022-08-27T09:00:13.258Z,1.36
2022-08-27T09:01:13.261Z,2.96
2022-08-27T09:02:13.734Z,3.96
2022-08-27T09:03:13.142Z,3.04
2022-08-27T09:04:34.095Z,3.60
2022-08-27T09:05:29.604Z,3.24
2022-08-27T09:07:14.044Z,3.04
2022-08-27T09:09:13.832Z,3.44
2022-08-27T09:10:18.859Z,2.40
2022-08-27T09:11:14.174Z,0.48
2022-08-27T09:12:13.076Z,0.84
2022-08-27T09:13:13.047Z,1.16
2022-08-27T09:14:36.900Z,3.48
2022-08-27T09:15:15.866Z,2.72
2022-08-27T09:16:13.332Z,3.88
2022-08-27T09:17:25.736Z,1.92
2022-08-27T09:18:14.282Z,2.24
2022-08-27T09:19:13.544Z,0.92
2022-08-27T09:20:13.625Z,0.68
2022-08-27T09:21:28.012Z,4.56
2022-08-27T09:22:15.851Z,1.20
2022-08-27T09:23:13.743Z,1.88
2022-08-27T09:24:16.326Z,0.28
2022-08-27T09:25:13.915Z,0.00
2022-08-27T09:27:14.796Z,2.16
2022-08-27T09:28:33.704Z,2.16
2022-08-27T09:30:14.951Z,2.64
2022-08-27T09:31:37.871Z,0.24
2022-08-27T09:32:18.896Z,0.56
2022-08-27T09:33:43.858Z,4.74
2022-08-27T09:34:13.651Z,3.72
2022-08-27T09:35:43.970Z,2.04
2022-08-27T09:36:22.954Z,2.88
2022-08-27T09:37:13.906Z,0.52
2022-08-27T09:38:13.021Z,1.60
2022-08-27T09:39:30.510Z,2.64
2022-08-27T09:40:30.286Z,2.88
2022-08-27T09:41:13.259Z,3.52
2022-08-27T09:44:15.051Z,5.16
2022-08-27T09:45:16.219Z,1.64
2022-08-27T09:46:29.530Z,5.28
2022-08-27T09:48:13.147Z,5.52
2022-08-27T09:49:18.244Z,3.32
2022-08-27T09:50:13.437Z,5.68
2022-08-27T09:51:13.415Z,3.96
2022-08-27T09:52:30.790Z,3.24
2022-08-27T09:53:15.241Z,4.72
2022-08-27T09:54:13.245Z,6.56
2022-08-27T09:55:13.369Z,2.92
2022-08-27T09:56:41.855Z,3.96
2022-08-27T09:57:13.175Z,3.48
2022-08-27T09:58:18.483Z,2.98
2022-08-27T09:59:13.325Z,1.00
2022-08-27T10:00:38.919Z,0.00
2022-08-27T10:01:14.494Z,0.08
2022-08-27T10:02:15.082Z,0.00
2022-08-27T10:03:13.111Z,0.32
2022-08-27T10:04:12.966Z,0.92
2022-08-27T10:05:40.058Z,1.80
2022-08-27T10:06:13.109Z,3.28
2022-08-27T10:07:30.055Z,5.36
2022-08-27T10:08:28.533Z,5.88
2022-08-27T10:10:15.625Z,4.56
2022-08-27T10:11:13.804Z,2.40
2022-08-27T10:12:19.458Z,4.76
2022-08-27T10:14:13.853Z,5.04
2022-08-27T10:15:13.637Z,4.32
2022-08-27T10:16:13.723Z,3.64
2022-08-27T10:17:13.909Z,3.28
2022-08-27T10:18:13.080Z,3.68
2022-08-27T10:19:13.097Z,3.96
2022-08-27T10:20:16.473Z,5.08
2022-08-27T10:21:15.641Z,4.56
2022-08-27T10:22:15.268Z,4.00
2022-08-27T10:23:13.072Z,6.00
2022-08-27T10:24:12.996Z,6.48
2022-08-27T10:25:13.139Z,4.52
2022-08-27T10:26:13.301Z,4.08
2022-08-27T10:27:13.273Z,3.80
2022-08-27T10:28:16.374Z,3.68
2022-08-27T10:29:15.870Z,5.56
2022-08-27T10:30:15.636Z,2.52
2022-08-27T10:31:13.940Z,7.56
2022-08-27T10:32:13.080Z,6.88
2022-08-27T10:33:13.923Z,5.16
2022-08-27T10:34:14.796Z,3.32
2022-08-27T10:35:13.014Z,0.68
2022-08-27T10:36:13.512Z,2.16
2022-08-27T10:37:43.719Z,1.76
2022-08-27T10:38:13.034Z,0.24
2022-08-27T10:39:13.331Z,3.80
2022-08-27T10:40:15.051Z,1.80
2022-08-27T10:41:14.655Z,0.84
2022-08-27T10:42:13.499Z,4.00
2022-08-27T10:43:13.736Z,21.96
2022-08-27T10:44:13.833Z,3.84
2022-08-27T10:45:13.825Z,9.08
2022-08-27T10:46:13.537Z,10.24
2022-08-27T10:47:13.353Z,6.76
2022-08-27T10:48:22.939Z,5.16
2022-08-27T10:49:20.916Z,6.53
2022-08-27T10:50:16.586Z,8.60
2022-08-27T10:51:15.648Z,9.36
2022-08-27T10:52:15.283Z,11.04
2022-08-27T10:53:14.432Z,3.16
2022-08-27T10:54:13.676Z,5.48
2022-08-27T10:55:16.969Z,5.64
2022-08-27T10:56:14.036Z,3.36
2022-08-27T10:57:28.558Z,4.08
2022-08-27T10:58:16.744Z,4.24
2022-08-27T10:59:15.264Z,3.32
2022-08-27T11:00:16.305Z,8.80
2022-08-27T11:01:16.185Z,6.92
2022-08-27T11:02:14.857Z,7.80
2022-08-27T11:03:15.235Z,5.24
2022-08-27T11:04:14.461Z,3.96
2022-08-27T11:05:21.954Z,3.88
2022-08-27T11:06:13.477Z,2.44
2022-08-27T11:07:16.595Z,2.68
2022-08-27T11:08:15.061Z,3.28
2022-08-27T11:09:13.089Z,0.84
2022-08-27T11:10:15.111Z,3.08
2022-08-27T11:11:57.174Z,4.76
2022-08-27T11:12:14.846Z,3.20
2022-08-27T11:13:13.517Z,2.72
2022-08-27T11:14:15.260Z,2.40
2022-08-27T11:15:13.429Z,5.36
2022-08-27T11:16:14.768Z,3.00
2022-08-27T11:17:17.171Z,5.80
2022-08-27T11:18:13.290Z,6.04
2022-08-27T11:19:14.739Z,2.04
2022-08-27T11:20:15.961Z,0.00
2022-08-27T11:21:13.385Z,6.80
2022-08-27T11:22:17.192Z,4.08
2022-08-27T11:23:13.663Z,5.08
2022-08-27T11:24:13.962Z,9.40
2022-08-27T11:25:12.842Z,8.48
2022-08-27T11:26:16.014Z,5.80
2022-08-27T11:27:14.060Z,5.28
2022-08-27T11:28:16.086Z,7.36
2022-08-27T11:29:15.647Z,12.72
2022-08-27T11:30:17.067Z,8.80
2022-08-27T11:31:16.895Z,8.00
2022-08-27T11:32:14.872Z,9.64
2022-08-27T11:33:15.961Z,2.76
2022-08-27T11:34:12.918Z,4.56
2022-08-27T11:35:12.731Z,7.04
2022-08-27T11:36:13.814Z,6.16
2022-08-27T11:37:14.688Z,3.48
2022-08-27T11:38:13.941Z,4.40
2022-08-27T11:39:16.194Z,5.80
2022-08-27T11:40:15.807Z,3.56
2022-08-27T11:41:15.474Z,1.84
2022-08-27T11:42:13.789Z,0.00
2022-08-27T11:43:22.725Z,0.00
2022-08-27T11:44:15.099Z,1.08
2022-08-27T11:45:14.592Z,3.48
2022-08-27T11:46:13.653Z,4.84
2022-08-27T11:47:13.590Z,5.24
2022-08-27T11:48:18.676Z,3.96
2022-08-27T11:49:17.394Z,1.68
2022-08-27T11:50:14.288Z,0.28
2022-08-27T11:51:15.961Z,1.76
2022-08-27T11:52:13.022Z,1.40
2022-08-27T11:53:13.072Z,3.68
2022-08-27T11:54:13.052Z,6.56
2022-08-27T11:55:15.680Z,13.88
2022-08-27T11:56:13.498Z,3.24
2022-08-27T11:57:16.873Z,4.40
2022-08-27T11:58:15.731Z,11.60
2022-08-27T11:59:18.368Z,13.30
2022-08-27T12:00:17.539Z,10.72
2022-08-27T12:01:15.320Z,9.60
2022-08-27T12:02:18.066Z,2.68
2022-08-27T12:03:17.624Z,6.96
2022-08-27T12:04:15.419Z,6.48
2022-08-27T12:05:17.234Z,6.36
2022-08-27T12:06:18.364Z,5.20
2022-08-27T12:07:15.768Z,2.36
2022-08-27T12:08:21.260Z,7.76
2022-08-27T12:09:14.864Z,5.28
2022-08-27T12:10:16.214Z,2.44
2022-08-27T12:11:13.094Z,8.68
2022-08-27T12:12:18.073Z,8.80
2022-08-27T12:13:16.449Z,12.92
2022-08-27T12:14:16.707Z,6.24
2022-08-27T12:15:13.853Z,2.52
2022-08-27T12:16:21.441Z,7.88
2022-08-27T12:17:17.148Z,7.96
2022-08-27T12:18:14.181Z,8.20
2022-08-27T12:19:14.163Z,4.04
2022-08-27T12:20:16.010Z,7.28
2022-08-27T12:21:12.954Z,11.72
2022-08-27T12:22:15.760Z,11.48
2022-08-27T12:23:14.992Z,12.20
2022-08-27T12:24:12.839Z,7.00
2022-08-27T12:25:18.275Z,4.88
2022-08-27T12:26:16.720Z,3.60
2022-08-27T12:27:18.374Z,17.16
2022-08-27T12:28:16.113Z,12.88
2022-08-27T12:29:14.875Z,10.60
2022-08-27T12:30:15.561Z,12.96
2022-08-27T12:31:16.653Z,14.64
2022-08-27T12:32:15.243Z,8.16
2022-08-27T12:33:17.069Z,12.48
2022-08-27T12:34:17.655Z,12.44
2022-08-27T12:35:15.153Z,18.88
2022-08-27T12:36:15.527Z,13.37
2022-08-27T12:37:15.782Z,7.48
2022-08-27T12:38:14.637Z,7.40
2022-08-27T12:39:14.415Z,8.24
2022-08-27T12:40:24.420Z,15.24
2022-08-27T12:41:19.172Z,1.80
2022-08-27T12:42:17.346Z,9.84
2022-08-27T12:43:26.580Z,8.20
2022-08-27T12:44:35.820Z,7.20
2022-08-27T12:45:19.085Z,5.36
2022-08-27T12:46:15.818Z,7.68
2022-08-27T12:47:14.021Z,12.16
2022-08-27T12:48:23.968Z,0.96
2022-08-27T12:49:38.807Z,2.10
2022-08-27T12:50:22.467Z,0.68
2022-08-27T12:51:16.778Z,7.16
2022-08-27T12:53:16.098Z,9.31
2022-08-27T12:54:18.698Z,15.80
2022-08-27T12:55:15.106Z,16.32
2022-08-27T12:56:15.437Z,9.60
2022-08-27T12:57:14.605Z,6.56
2022-08-27T12:58:15.944Z,7.00
2022-08-27T12:59:14.149Z,9.40
2022-08-27T13:00:16.496Z,8.00
2022-08-27T13:01:15.217Z,11.20
2022-08-27T13:02:13.566Z,11.72
2022-08-27T13:03:15.286Z,13.20
2022-08-27T13:04:15.866Z,10.56
2022-08-27T13:05:15.279Z,9.52
2022-08-27T13:06:13.997Z,9.60
2022-08-27T13:07:13.037Z,11.56
2022-08-27T13:08:13.376Z,14.24
2022-08-27T13:09:17.783Z,13.48
2022-08-27T13:11:14.397Z,8.48
2022-08-27T13:12:28.410Z,14.20
2022-08-27T13:13:16.713Z,12.28
2022-08-27T13:14:14.604Z,7.52
2022-08-27T13:15:16.599Z,11.16
2022-08-27T13:16:15.258Z,13.68
2022-08-27T13:17:16.276Z,10.44
2022-08-27T13:18:17.452Z,6.91
2022-08-27T13:19:15.406Z,2.96
2022-08-27T13:20:14.894Z,4.08
2022-08-27T13:21:18.110Z,13.56
2022-08-27T13:22:16.175Z,13.72
2022-08-27T13:23:17.287Z,8.80
2022-08-27T13:24:20.555Z,1.52
2022-08-27T13:25:16.931Z,2.56
2022-08-27T13:26:18.062Z,2.92
2022-08-27T13:27:18.170Z,10.08
2022-08-27T13:28:16.140Z,10.68
2022-08-27T13:29:15.256Z,7.25
2022-08-27T13:30:35.131Z,10.36
2022-08-27T13:31:14.881Z,8.44
2022-08-27T13:32:19.597Z,6.56